sensor_id;sensor_type;location;lat;lon;timestamp;temperature;humidity
13970;DHT22;7057;49.984;8.404;2023-05-07T00:01:43;16.60;99.90
13970;DHT22;7057;49.984;8.404;2023-05-07T00:04:11;16.50;99.90
13970;DHT22;7057;49.984;8.404;2023-05-07T00:06:39;16.50;99.90
13970;DHT22;7057;49.984;8.404;2023-05-07T00:09:06;16.40;99.90
13970;DHT22;7057;49.984;8.404;2023-05-07T00:11:34;16.40;99.90
13970;DHT22;7057;49.984;8.404;2023-05-07T00:14:01;16.40;99.90
13970;DHT22;7057;49.984;8.404;2023-05-07T00:16:28;16.40;99.90
13970;DHT22;7057;49.984;8.404;2023-05-07T00:18:55;16.30;99.90
13970;DHT22;7057;49.984;8.404;2023-05-07T00:21:23;16.30;99.90
13970;DHT22;7057;49.984;8.404;2023-05-07T00:23:52;16.30;99.90
13970;DHT22;7057;49.984;8.404;2023-05-07T00:26:19;16.30;99.90
13970;DHT22;7057;49.984;8.404;2023-05-07T00:28:47;16.30;99.90
13970;DHT22;7057;49.984;8.404;2023-05-07T00:31:14;16.30;99.90
13970;DHT22;7057;49.984;8.404;2023-05-07T00:33:41;16.30;99.90
13970;DHT22;7057;49.984;8.404;2023-05-07T00:36:08;16.30;99.90
13970;DHT22;7057;49.984;8.404;2023-05-07T00:38:37;16.30;99.90
13970;DHT22;7057;49.984;8.404;2023-05-07T00:41:05;16.40;99.90
13970;DHT22;7057;49.984;8.404;2023-05-07T00:43:32;16.40;99.90
13970;DHT22;7057;49.984;8.404;2023-05-07T00:45:59;16.40;99.90
13970;DHT22;7057;49.984;8.404;2023-05-07T00:48:27;16.40;99.90
13970;DHT22;7057;49.984;8.404;2023-05-07T00:50:55;16.40;99.90
13970;DHT22;7057;49.984;8.404;2023-05-07T00:53:23;16.40;99.90
13970;DHT22;7057;49.984;8.404;2023-05-07T00:55:51;16.40;99.90
13970;DHT22;7057;49.984;8.404;2023-05-07T00:58:19;16.40;99.90
13970;DHT22;7057;49.984;8.404;2023-05-07T01:00:47;16.40;99.90
13970;DHT22;7057;49.984;8.404;2023-05-07T01:03:14;16.40;99.90
13970;DHT22;7057;49.984;8.404;2023-05-07T01:05:42;16.40;99.90
13970;DHT22;7057;49.984;8.404;2023-05-07T01:08:10;16.50;99.90
13970;DHT22;7057;49.984;8.404;2023-05-07T01:10:37;16.40;99.90
13970;DHT22;7057;49.984;8.404;2023-05-07T01:13:10;16.40;99.90
13970;DHT22;7057;49.984;8.404;2023-05-07T01:15:38;16.40;99.90
13970;DHT22;7057;49.984;8.404;2023-05-07T01:18:06;16.50;99.90
13970;DHT22;7057;49.984;8.404;2023-05-07T01:20:34;16.40;99.90
13970;DHT22;7057;49.984;8.404;2023-05-07T01:23:03;16.40;99.90
13970;DHT22;7057;49.984;8.404;2023-05-07T01:25:30;16.40;99.90
13970;DHT22;7057;49.984;8.404;2023-05-07T01:27:58;16.40;99.90
13970;DHT22;7057;49.984;8.404;2023-05-07T01:30:27;16.40;99.90
13970;DHT22;7057;49.984;8.404;2023-05-07T01:32:58;16.40;99.90
13970;DHT22;7057;49.984;8.404;2023-05-07T01:35:28;16.40;99.90
13970;DHT22;7057;49.984;8.404;2023-05-07T01:37:56;16.40;99.90
13970;DHT22;7057;49.984;8.404;2023-05-07T01:40:26;16.40;99.90
13970;DHT22;7057;49.984;8.404;2023-05-07T01:42:54;16.30;99.90
13970;DHT22;7057;49.984;8.404;2023-05-07T01:45:21;16.30;99.90
13970;DHT22;7057;49.984;8.404;2023-05-07T01:47:49;16.30;99.90
13970;DHT22;7057;49.984;8.404;2023-05-07T01:50:18;16.30;99.90
13970;DHT22;7057;49.984;8.404;2023-05-07T01:52:46;16.30;99.90
13970;DHT22;7057;49.984;8.404;2023-05-07T01:55:14;16.30;99.90
13970;DHT22;7057;49.984;8.404;2023-05-07T01:57:42;16.30;99.90
13970;DHT22;7057;49.984;8.404;2023-05-07T02:00:10;16.30;99.90
13970;DHT22;7057;49.984;8.404;2023-05-07T02:02:37;16.30;99.90
13970;DHT22;7057;49.984;8.404;2023-05-07T02:05:05;16.30;99.90
13970;DHT22;7057;49.984;8.404;2023-05-07T02:07:32;16.30;99.90
13970;DHT22;7057;49.984;8.404;2023-05-07T02:10:00;16.30;99.90
13970;DHT22;7057;49.984;8.404;2023-05-07T02:12:27;16.30;99.90
13970;DHT22;7057;49.984;8.404;2023-05-07T02:14:55;16.30;99.90
13970;DHT22;7057;49.984;8.404;2023-05-07T02:17:22;16.30;99.90
13970;DHT22;7057;49.984;8.404;2023-05-07T02:19:49;16.30;99.90
13970;DHT22;7057;49.984;8.404;2023-05-07T02:22:17;16.30;99.90
13970;DHT22;7057;49.984;8.404;2023-05-07T02:24:44;16.30;99.90
13970;DHT22;7057;49.984;8.404;2023-05-07T02:27:11;16.30;99.90
13970;DHT22;7057;49.984;8.404;2023-05-07T02:29:38;16.30;99.90
13970;DHT22;7057;49.984;8.404;2023-05-07T02:32:07;16.30;99.90
13970;DHT22;7057;49.984;8.404;2023-05-07T02:34:34;16.30;99.90
13970;DHT22;7057;49.984;8.404;2023-05-07T02:37:01;16.30;99.90
13970;DHT22;7057;49.984;8.404;2023-05-07T02:39:28;16.30;99.90
13970;DHT22;7057;49.984;8.404;2023-05-07T02:41:56;16.30;99.90
13970;DHT22;7057;49.984;8.404;2023-05-07T02:44:23;16.30;99.90
13970;DHT22;7057;49.984;8.404;2023-05-07T02:46:50;16.40;99.90
13970;DHT22;7057;49.984;8.404;2023-05-07T02:49:18;16.40;99.90
13970;DHT22;7057;49.984;8.404;2023-05-07T02:51:45;16.40;99.90
13970;DHT22;7057;49.984;8.404;2023-05-07T02:54:12;16.30;99.90
13970;DHT22;7057;49.984;8.404;2023-05-07T02:56:40;16.30;99.90
13970;DHT22;7057;49.984;8.404;2023-05-07T02:59:07;16.30;99.90
13970;DHT22;7057;49.984;8.404;2023-05-07T03:01:34;16.30;99.90
13970;DHT22;7057;49.984;8.404;2023-05-07T03:04:01;16.30;99.90
13970;DHT22;7057;49.984;8.404;2023-05-07T03:06:29;16.40;99.90
13970;DHT22;7057;49.984;8.404;2023-05-07T03:08:57;16.40;99.90
13970;DHT22;7057;49.984;8.404;2023-05-07T03:11:24;16.40;99.90
13970;DHT22;7057;49.984;8.404;2023-05-07T03:13:51;16.40;99.90
13970;DHT22;7057;49.984;8.404;2023-05-07T03:16:18;16.40;99.90
13970;DHT22;7057;49.984;8.404;2023-05-07T03:18:45;16.30;99.90
13970;DHT22;7057;49.984;8.404;2023-05-07T03:21:13;16.40;99.90
13970;DHT22;7057;49.984;8.404;2023-05-07T03:23:41;16.40;99.90
13970;DHT22;7057;49.984;8.404;2023-05-07T03:26:08;16.40;99.90
13970;DHT22;7057;49.984;8.404;2023-05-07T03:28:36;16.40;99.90
13970;DHT22;7057;49.984;8.404;2023-05-07T03:31:03;16.40;99.90
13970;DHT22;7057;49.984;8.404;2023-05-07T03:33:33;16.40;99.90
13970;DHT22;7057;49.984;8.404;2023-05-07T03:36:00;16.30;99.90
13970;DHT22;7057;49.984;8.404;2023-05-07T03:38:27;16.30;99.90
13970;DHT22;7057;49.984;8.404;2023-05-07T03:40:56;16.30;99.90
13970;DHT22;7057;49.984;8.404;2023-05-07T03:43:23;16.20;99.90
13970;DHT22;7057;49.984;8.404;2023-05-07T03:45:50;16.20;99.90
13970;DHT22;7057;49.984;8.404;2023-05-07T03:48:17;16.20;99.90
13970;DHT22;7057;49.984;8.404;2023-05-07T03:50:44;16.20;99.90
13970;DHT22;7057;49.984;8.404;2023-05-07T03:53:12;16.20;99.90
13970;DHT22;7057;49.984;8.404;2023-05-07T03:55:39;16.20;99.90
13970;DHT22;7057;49.984;8.404;2023-05-07T03:58:07;16.20;99.90
13970;DHT22;7057;49.984;8.404;2023-05-07T04:00:35;16.10;99.90
13970;DHT22;7057;49.984;8.404;2023-05-07T04:03:04;16.10;99.90
13970;DHT22;7057;49.984;8.404;2023-05-07T04:05:31;16.10;99.90
13970;DHT22;7057;49.984;8.404;2023-05-07T04:07:59;16.10;99.90
13970;DHT22;7057;49.984;8.404;2023-05-07T04:10:26;16.10;99.90
13970;DHT22;7057;49.984;8.404;2023-05-07T04:12:54;16.10;99.90
13970;DHT22;7057;49.984;8.404;2023-05-07T04:15:22;16.10;99.90
13970;DHT22;7057;49.984;8.404;2023-05-07T04:17:50;16.20;99.90
13970;DHT22;7057;49.984;8.404;2023-05-07T04:20:17;16.20;99.90
13970;DHT22;7057;49.984;8.404;2023-05-07T04:22:44;16.20;99.90
13970;DHT22;7057;49.984;8.404;2023-05-07T04:25:11;16.20;99.90
13970;DHT22;7057;49.984;8.404;2023-05-07T04:27:39;16.20;99.90
13970;DHT22;7057;49.984;8.404;2023-05-07T04:30:07;16.20;99.90
13970;DHT22;7057;49.984;8.404;2023-05-07T04:32:36;16.20;99.90
13970;DHT22;7057;49.984;8.404;2023-05-07T04:35:03;16.20;99.90
13970;DHT22;7057;49.984;8.404;2023-05-07T04:37:31;16.30;99.90
13970;DHT22;7057;49.984;8.404;2023-05-07T04:39:59;16.20;99.90
13970;DHT22;7057;49.984;8.404;2023-05-07T04:42:26;16.20;99.90
13970;DHT22;7057;49.984;8.404;2023-05-07T04:44:53;16.20;99.90
13970;DHT22;7057;49.984;8.404;2023-05-07T04:47:20;16.10;99.90
13970;DHT22;7057;49.984;8.404;2023-05-07T04:49:49;16.20;99.90
13970;DHT22;7057;49.984;8.404;2023-05-07T04:52:16;16.20;99.90
13970;DHT22;7057;49.984;8.404;2023-05-07T04:54:43;16.20;99.90
13970;DHT22;7057;49.984;8.404;2023-05-07T04:57:10;16.20;99.90
13970;DHT22;7057;49.984;8.404;2023-05-07T04:59:38;16.30;99.90
13970;DHT22;7057;49.984;8.404;2023-05-07T05:02:05;16.30;99.90
13970;DHT22;7057;49.984;8.404;2023-05-07T05:04:32;16.40;99.90
13970;DHT22;7057;49.984;8.404;2023-05-07T05:07:00;16.40;99.90
13970;DHT22;7057;49.984;8.404;2023-05-07T05:09:29;16.40;99.90
13970;DHT22;7057;49.984;8.404;2023-05-07T05:11:56;16.50;99.90
13970;DHT22;7057;49.984;8.404;2023-05-07T05:14:23;16.50;99.90
13970;DHT22;7057;49.984;8.404;2023-05-07T05:16:51;16.50;99.90
13970;DHT22;7057;49.984;8.404;2023-05-07T05:19:18;16.60;99.90
13970;DHT22;7057;49.984;8.404;2023-05-07T05:21:45;16.70;99.90
13970;DHT22;7057;49.984;8.404;2023-05-07T05:24:13;16.70;99.90
13970;DHT22;7057;49.984;8.404;2023-05-07T05:26:41;16.70;99.90
13970;DHT22;7057;49.984;8.404;2023-05-07T05:29:08;16.70;99.90
13970;DHT22;7057;49.984;8.404;2023-05-07T05:31:35;16.70;99.90
13970;DHT22;7057;49.984;8.404;2023-05-07T05:34:02;16.80;99.90
13970;DHT22;7057;49.984;8.404;2023-05-07T05:36:29;16.80;99.90
13970;DHT22;7057;49.984;8.404;2023-05-07T05:38:57;16.90;99.90
13970;DHT22;7057;49.984;8.404;2023-05-07T05:41:25;17.00;99.90
13970;DHT22;7057;49.984;8.404;2023-05-07T05:43:53;17.00;99.90
13970;DHT22;7057;49.984;8.404;2023-05-07T05:46:20;17.10;99.90
13970;DHT22;7057;49.984;8.404;2023-05-07T05:48:47;17.10;99.90
13970;DHT22;7057;49.984;8.404;2023-05-07T05:51:14;17.10;99.90
13970;DHT22;7057;49.984;8.404;2023-05-07T05:53:41;17.20;99.90
13970;DHT22;7057;49.984;8.404;2023-05-07T05:56:08;17.20;99.90
13970;DHT22;7057;49.984;8.404;2023-05-07T05:58:37;17.30;99.90
13970;DHT22;7057;49.984;8.404;2023-05-07T06:01:04;17.40;99.90
13970;DHT22;7057;49.984;8.404;2023-05-07T06:03:32;17.40;99.90
13970;DHT22;7057;49.984;8.404;2023-05-07T06:05:59;17.50;99.90
13970;DHT22;7057;49.984;8.404;2023-05-07T06:08:29;17.40;99.90
13970;DHT22;7057;49.984;8.404;2023-05-07T06:10:56;17.30;99.90
13970;DHT22;7057;49.984;8.404;2023-05-07T06:13:23;17.30;99.90
13970;DHT22;7057;49.984;8.404;2023-05-07T06:15:52;17.40;99.90
13970;DHT22;7057;49.984;8.404;2023-05-07T06:18:19;17.30;99.90
13970;DHT22;7057;49.984;8.404;2023-05-07T06:20:46;17.40;99.90
13970;DHT22;7057;49.984;8.404;2023-05-07T06:23:14;17.40;99.90
13970;DHT22;7057;49.984;8.404;2023-05-07T06:25:41;17.40;99.90
13970;DHT22;7057;49.984;8.404;2023-05-07T06:28:08;17.40;99.90
13970;DHT22;7057;49.984;8.404;2023-05-07T06:30:37;17.60;99.90
13970;DHT22;7057;49.984;8.404;2023-05-07T06:33:05;17.60;99.90
13970;DHT22;7057;49.984;8.404;2023-05-07T06:35:32;17.60;99.90
13970;DHT22;7057;49.984;8.404;2023-05-07T06:38:00;17.70;99.90
13970;DHT22;7057;49.984;8.404;2023-05-07T06:40:27;17.90;99.90
13970;DHT22;7057;49.984;8.404;2023-05-07T06:42:54;18.10;99.90
13970;DHT22;7057;49.984;8.404;2023-05-07T06:45:22;18.20;99.90
13970;DHT22;7057;49.984;8.404;2023-05-07T06:47:49;18.20;99.90
13970;DHT22;7057;49.984;8.404;2023-05-07T06:50:18;18.30;99.90
13970;DHT22;7057;49.984;8.404;2023-05-07T06:52:45;18.30;99.90
13970;DHT22;7057;49.984;8.404;2023-05-07T06:55:12;18.20;99.90
13970;DHT22;7057;49.984;8.404;2023-05-07T06:57:39;18.40;99.90
13970;DHT22;7057;49.984;8.404;2023-05-07T07:00:07;18.60;99.90
13970;DHT22;7057;49.984;8.404;2023-05-07T07:02:36;18.70;99.90
13970;DHT22;7057;49.984;8.404;2023-05-07T07:05:04;18.60;99.90
13970;DHT22;7057;49.984;8.404;2023-05-07T07:07:32;18.40;99.90
13970;DHT22;7057;49.984;8.404;2023-05-07T07:09:59;18.40;99.90
13970;DHT22;7057;49.984;8.404;2023-05-07T07:12:27;18.40;99.90
13970;DHT22;7057;49.984;8.404;2023-05-07T07:14:54;18.40;99.90
13970;DHT22;7057;49.984;8.404;2023-05-07T07:17:21;18.40;99.90
13970;DHT22;7057;49.984;8.404;2023-05-07T07:19:49;18.40;99.90
13970;DHT22;7057;49.984;8.404;2023-05-07T07:22:16;18.30;99.90
13970;DHT22;7057;49.984;8.404;2023-05-07T07:24:44;18.20;99.90
13970;DHT22;7057;49.984;8.404;2023-05-07T07:27:12;18.20;99.90
13970;DHT22;7057;49.984;8.404;2023-05-07T07:29:39;18.20;99.90
13970;DHT22;7057;49.984;8.404;2023-05-07T07:32:06;18.40;99.90
13970;DHT22;7057;49.984;8.404;2023-05-07T07:34:33;18.40;99.90
13970;DHT22;7057;49.984;8.404;2023-05-07T07:37:00;18.40;99.90
13970;DHT22;7057;49.984;8.404;2023-05-07T07:39:31;18.50;99.90
13970;DHT22;7057;49.984;8.404;2023-05-07T07:41:59;18.50;99.90
13970;DHT22;7057;49.984;8.404;2023-05-07T07:44:28;18.40;99.90
13970;DHT22;7057;49.984;8.404;2023-05-07T07:46:55;18.40;99.90
13970;DHT22;7057;49.984;8.404;2023-05-07T07:49:22;18.40;99.90
13970;DHT22;7057;49.984;8.404;2023-05-07T07:51:49;18.40;99.90
13970;DHT22;7057;49.984;8.404;2023-05-07T07:54:16;18.50;99.90
13970;DHT22;7057;49.984;8.404;2023-05-07T07:56:44;18.50;99.90
13970;DHT22;7057;49.984;8.404;2023-05-07T07:59:12;18.50;99.90
13970;DHT22;7057;49.984;8.404;2023-05-07T08:01:43;18.70;99.90
13970;DHT22;7057;49.984;8.404;2023-05-07T08:04:10;18.80;99.90
13970;DHT22;7057;49.984;8.404;2023-05-07T08:06:37;18.80;99.90
13970;DHT22;7057;49.984;8.404;2023-05-07T08:09:04;18.80;99.90
13970;DHT22;7057;49.984;8.404;2023-05-07T08:11:32;18.80;99.90
13970;DHT22;7057;49.984;8.404;2023-05-07T08:13:59;18.70;99.90
13970;DHT22;7057;49.984;8.404;2023-05-07T08:16:28;18.80;99.90
13970;DHT22;7057;49.984;8.404;2023-05-07T08:18:56;18.90;99.90
13970;DHT22;7057;49.984;8.404;2023-05-07T08:21:23;19.00;99.90
13970;DHT22;7057;49.984;8.404;2023-05-07T08:23:50;19.10;99.90
13970;DHT22;7057;49.984;8.404;2023-05-07T08:26:17;19.20;99.90
13970;DHT22;7057;49.984;8.404;2023-05-07T08:28:44;19.30;99.90
13970;DHT22;7057;49.984;8.404;2023-05-07T08:31:11;19.20;99.90
13970;DHT22;7057;49.984;8.404;2023-05-07T08:33:40;19.30;99.90
13970;DHT22;7057;49.984;8.404;2023-05-07T08:36:07;19.40;99.90
13970;DHT22;7057;49.984;8.404;2023-05-07T08:38:34;19.30;99.90
13970;DHT22;7057;49.984;8.404;2023-05-07T08:41:01;19.40;99.90
13970;DHT22;7057;49.984;8.404;2023-05-07T08:43:31;19.50;99.90
13970;DHT22;7057;49.984;8.404;2023-05-07T08:46:01;19.80;99.90
13970;DHT22;7057;49.984;8.404;2023-05-07T08:48:29;20.00;99.90
13970;DHT22;7057;49.984;8.404;2023-05-07T08:50:59;20.20;99.90
13970;DHT22;7057;49.984;8.404;2023-05-07T08:53:26;20.40;99.90
13970;DHT22;7057;49.984;8.404;2023-05-07T08:55:53;20.60;99.90
13970;DHT22;7057;49.984;8.404;2023-05-07T08:58:20;20.90;99.90
13970;DHT22;7057;49.984;8.404;2023-05-07T09:00:48;20.80;99.90
13970;DHT22;7057;49.984;8.404;2023-05-07T09:03:15;20.90;99.90
13970;DHT22;7057;49.984;8.404;2023-05-07T09:05:42;21.00;99.90
13970;DHT22;7057;49.984;8.404;2023-05-07T09:08:14;21.20;99.90
13970;DHT22;7057;49.984;8.404;2023-05-07T09:10:42;21.40;99.90
13970;DHT22;7057;49.984;8.404;2023-05-07T09:13:09;21.40;99.90
13970;DHT22;7057;49.984;8.404;2023-05-07T09:15:39;21.40;99.90
13970;DHT22;7057;49.984;8.404;2023-05-07T09:18:06;21.60;99.90
13970;DHT22;7057;49.984;8.404;2023-05-07T09:20:33;21.60;99.90
13970;DHT22;7057;49.984;8.404;2023-05-07T09:23:00;21.90;99.90
13970;DHT22;7057;49.984;8.404;2023-05-07T09:25:32;22.00;99.90
13970;DHT22;7057;49.984;8.404;2023-05-07T09:28:00;21.90;99.90
13970;DHT22;7057;49.984;8.404;2023-05-07T09:30:28;21.80;99.90
13970;DHT22;7057;49.984;8.404;2023-05-07T09:32:57;21.70;99.90
13970;DHT22;7057;49.984;8.404;2023-05-07T09:35:25;21.90;99.90
13970;DHT22;7057;49.984;8.404;2023-05-07T09:37:53;22.10;99.90
13970;DHT22;7057;49.984;8.404;2023-05-07T09:40:21;22.20;99.90
13970;DHT22;7057;49.984;8.404;2023-05-07T09:42:50;22.30;99.90
13970;DHT22;7057;49.984;8.404;2023-05-07T09:45:21;22.60;99.90
13970;DHT22;7057;49.984;8.404;2023-05-07T09:47:49;22.60;99.90
13970;DHT22;7057;49.984;8.404;2023-05-07T09:50:22;22.60;99.90
13970;DHT22;7057;49.984;8.404;2023-05-07T09:52:52;22.70;99.90
13970;DHT22;7057;49.984;8.404;2023-05-07T09:55:21;22.60;99.90
13970;DHT22;7057;49.984;8.404;2023-05-07T09:57:51;22.50;99.90
13970;DHT22;7057;49.984;8.404;2023-05-07T10:00:19;22.50;99.90
13970;DHT22;7057;49.984;8.404;2023-05-07T10:02:47;22.40;99.90
13970;DHT22;7057;49.984;8.404;2023-05-07T10:05:15;22.30;99.90
13970;DHT22;7057;49.984;8.404;2023-05-07T10:07:44;22.20;99.90
13970;DHT22;7057;49.984;8.404;2023-05-07T10:10:12;22.50;99.90
13970;DHT22;7057;49.984;8.404;2023-05-07T10:12:40;22.50;99.90
13970;DHT22;7057;49.984;8.404;2023-05-07T10:15:11;22.70;99.90
13970;DHT22;7057;49.984;8.404;2023-05-07T10:17:39;22.60;99.90
13970;DHT22;7057;49.984;8.404;2023-05-07T10:20:07;22.50;99.90
13970;DHT22;7057;49.984;8.404;2023-05-07T10:22:38;22.50;99.90
13970;DHT22;7057;49.984;8.404;2023-05-07T10:25:11;22.30;99.90
13970;DHT22;7057;49.984;8.404;2023-05-07T10:27:42;22.30;99.90
13970;DHT22;7057;49.984;8.404;2023-05-07T10:30:19;22.50;99.90
13970;DHT22;7057;49.984;8.404;2023-05-07T10:32:54;22.80;99.90
13970;DHT22;7057;49.984;8.404;2023-05-07T10:35:24;23.10;99.90
13970;DHT22;7057;49.984;8.404;2023-05-07T10:37:52;23.10;99.90
13970;DHT22;7057;49.984;8.404;2023-05-07T10:40:20;22.90;99.90
13970;DHT22;7057;49.984;8.404;2023-05-07T10:42:55;23.20;99.90
13970;DHT22;7057;49.984;8.404;2023-05-07T10:45:25;23.50;99.90
13970;DHT22;7057;49.984;8.404;2023-05-07T10:48:12;23.60;99.90
13970;DHT22;7057;49.984;8.404;2023-05-07T10:50:40;23.80;99.90
13970;DHT22;7057;49.984;8.404;2023-05-07T10:53:21;24.30;99.90
13970;DHT22;7057;49.984;8.404;2023-05-07T10:56:23;24.60;99.90
13970;DHT22;7057;49.984;8.404;2023-05-07T10:58:40;25.00;99.90
13970;DHT22;7057;49.984;8.404;2023-05-07T11:01:09;25.40;99.90
13970;DHT22;7057;49.984;8.404;2023-05-07T11:04:12;25.00;99.90
13970;DHT22;7057;49.984;8.404;2023-05-07T11:06:40;24.90;99.90
13970;DHT22;7057;49.984;8.404;2023-05-07T11:09:07;24.70;99.90
13970;DHT22;7057;49.984;8.404;2023-05-07T11:11:45;24.50;99.90
13970;DHT22;7057;49.984;8.404;2023-05-07T11:14:13;24.20;99.90
13970;DHT22;7057;49.984;8.404;2023-05-07T11:16:42;24.30;99.90
13970;DHT22;7057;49.984;8.404;2023-05-07T11:19:10;24.50;99.90
13970;DHT22;7057;49.984;8.404;2023-05-07T11:21:38;24.60;99.90
13970;DHT22;7057;49.984;8.404;2023-05-07T11:24:06;24.70;99.90
13970;DHT22;7057;49.984;8.404;2023-05-07T11:26:45;25.00;99.90
13970;DHT22;7057;49.984;8.404;2023-05-07T11:29:14;25.00;99.90
13970;DHT22;7057;49.984;8.404;2023-05-07T11:31:42;25.20;99.90
13970;DHT22;7057;49.984;8.404;2023-05-07T11:34:11;25.60;99.90
13970;DHT22;7057;49.984;8.404;2023-05-07T11:36:42;25.60;99.90
13970;DHT22;7057;49.984;8.404;2023-05-07T11:39:27;25.70;99.90
13970;DHT22;7057;49.984;8.404;2023-05-07T11:41:54;26.30;99.90
13970;DHT22;7057;49.984;8.404;2023-05-07T11:44:21;26.10;99.90
13970;DHT22;7057;49.984;8.404;2023-05-07T11:46:50;25.90;99.90
13970;DHT22;7057;49.984;8.404;2023-05-07T11:49:18;25.90;99.90
13970;DHT22;7057;49.984;8.404;2023-05-07T11:51:45;25.70;99.90
13970;DHT22;7057;49.984;8.404;2023-05-07T11:54:16;25.50;99.90
13970;DHT22;7057;49.984;8.404;2023-05-07T11:56:44;25.50;99.90
13970;DHT22;7057;49.984;8.404;2023-05-07T11:59:11;25.30;99.90
13970;DHT22;7057;49.984;8.404;2023-05-07T12:01:39;25.60;99.90
13970;DHT22;7057;49.984;8.404;2023-05-07T12:04:07;25.40;99.90
13970;DHT22;7057;49.984;8.404;2023-05-07T12:06:36;25.70;99.90
13970;DHT22;7057;49.984;8.404;2023-05-07T12:09:04;26.00;99.90
13970;DHT22;7057;49.984;8.404;2023-05-07T12:11:33;26.40;99.90
13970;DHT22;7057;49.984;8.404;2023-05-07T12:14:00;26.50;99.90
13970;DHT22;7057;49.984;8.404;2023-05-07T12:16:29;26.60;99.90
13970;DHT22;7057;49.984;8.404;2023-05-07T12:18:56;26.40;99.90
13970;DHT22;7057;49.984;8.404;2023-05-07T12:21:26;26.60;99.90
13970;DHT22;7057;49.984;8.404;2023-05-07T12:23:53;26.80;99.90
13970;DHT22;7057;49.984;8.404;2023-05-07T12:26:20;26.50;99.90
13970;DHT22;7057;49.984;8.404;2023-05-07T12:28:47;26.40;99.90
13970;DHT22;7057;49.984;8.404;2023-05-07T12:31:15;26.40;99.90
13970;DHT22;7057;49.984;8.404;2023-05-07T12:33:42;26.70;99.90
13970;DHT22;7057;49.984;8.404;2023-05-07T12:36:12;26.80;99.90
13970;DHT22;7057;49.984;8.404;2023-05-07T12:38:41;26.90;99.90
13970;DHT22;7057;49.984;8.404;2023-05-07T12:41:09;26.90;99.90
13970;DHT22;7057;49.984;8.404;2023-05-07T12:43:38;26.70;99.90
13970;DHT22;7057;49.984;8.404;2023-05-07T12:46:07;26.70;99.90
13970;DHT22;7057;49.984;8.404;2023-05-07T12:48:36;26.40;99.90
13970;DHT22;7057;49.984;8.404;2023-05-07T12:51:05;26.50;99.90
13970;DHT22;7057;49.984;8.404;2023-05-07T12:53:32;26.70;99.90
13970;DHT22;7057;49.984;8.404;2023-05-07T12:56:01;26.70;99.90
13970;DHT22;7057;49.984;8.404;2023-05-07T12:58:30;26.70;99.90
13970;DHT22;7057;49.984;8.404;2023-05-07T13:01:01;26.20;99.90
13970;DHT22;7057;49.984;8.404;2023-05-07T13:03:32;26.10;99.90
13970;DHT22;7057;49.984;8.404;2023-05-07T13:06:01;25.90;99.90
13970;DHT22;7057;49.984;8.404;2023-05-07T13:08:30;26.00;99.90
13970;DHT22;7057;49.984;8.404;2023-05-07T13:10:58;26.10;99.90
13970;DHT22;7057;49.984;8.404;2023-05-07T13:13:27;26.40;99.90
13970;DHT22;7057;49.984;8.404;2023-05-07T13:15:55;26.90;99.90
13970;DHT22;7057;49.984;8.404;2023-05-07T13:18:22;27.40;99.90
13970;DHT22;7057;49.984;8.404;2023-05-07T13:20:49;27.80;99.90
13970;DHT22;7057;49.984;8.404;2023-05-07T13:23:17;28.00;99.90
13970;DHT22;7057;49.984;8.404;2023-05-07T13:25:44;27.50;99.90
13970;DHT22;7057;49.984;8.404;2023-05-07T13:28:12;27.20;99.90
13970;DHT22;7057;49.984;8.404;2023-05-07T13:30:40;27.00;99.90
13970;DHT22;7057;49.984;8.404;2023-05-07T13:33:07;26.80;99.90
13970;DHT22;7057;49.984;8.404;2023-05-07T13:35:35;26.80;99.90
13970;DHT22;7057;49.984;8.404;2023-05-07T13:38:02;27.10;99.90
13970;DHT22;7057;49.984;8.404;2023-05-07T13:40:29;27.20;99.90
13970;DHT22;7057;49.984;8.404;2023-05-07T13:42:57;26.90;99.90
13970;DHT22;7057;49.984;8.404;2023-05-07T13:45:26;26.80;99.90
13970;DHT22;7057;49.984;8.404;2023-05-07T13:47:57;26.80;99.90
13970;DHT22;7057;49.984;8.404;2023-05-07T13:50:24;26.80;99.90
13970;DHT22;7057;49.984;8.404;2023-05-07T13:52:53;26.80;99.90
13970;DHT22;7057;49.984;8.404;2023-05-07T13:55:21;26.70;99.90
13970;DHT22;7057;49.984;8.404;2023-05-07T13:57:55;26.70;99.90
13970;DHT22;7057;49.984;8.404;2023-05-07T14:00:23;26.30;99.90
13970;DHT22;7057;49.984;8.404;2023-05-07T14:02:50;26.40;99.90
13970;DHT22;7057;49.984;8.404;2023-05-07T14:05:19;26.50;99.90
13970;DHT22;7057;49.984;8.404;2023-05-07T14:07:46;26.60;99.90
13970;DHT22;7057;49.984;8.404;2023-05-07T14:10:15;26.70;99.90
13970;DHT22;7057;49.984;8.404;2023-05-07T14:12:42;26.60;99.90
13970;DHT22;7057;49.984;8.404;2023-05-07T14:15:09;26.40;99.90
13970;DHT22;7057;49.984;8.404;2023-05-07T14:17:37;26.60;99.90
13970;DHT22;7057;49.984;8.404;2023-05-07T14:20:05;26.50;99.90
13970;DHT22;7057;49.984;8.404;2023-05-07T14:22:34;26.40;99.90
13970;DHT22;7057;49.984;8.404;2023-05-07T14:25:01;26.30;99.90
13970;DHT22;7057;49.984;8.404;2023-05-07T14:27:29;26.40;99.90
13970;DHT22;7057;49.984;8.404;2023-05-07T14:29:56;26.60;99.90
13970;DHT22;7057;49.984;8.404;2023-05-07T14:32:23;26.70;99.90
13970;DHT22;7057;49.984;8.404;2023-05-07T14:34:50;26.80;99.90
13970;DHT22;7057;49.984;8.404;2023-05-07T14:37:17;26.80;99.90
13970;DHT22;7057;49.984;8.404;2023-05-07T14:39:47;26.70;99.90
13970;DHT22;7057;49.984;8.404;2023-05-07T14:42:14;26.70;99.90
13970;DHT22;7057;49.984;8.404;2023-05-07T14:44:41;26.70;99.90
13970;DHT22;7057;49.984;8.404;2023-05-07T14:47:08;26.50;99.90
13970;DHT22;7057;49.984;8.404;2023-05-07T14:49:35;26.30;99.90
13970;DHT22;7057;49.984;8.404;2023-05-07T14:52:03;25.80;99.90
13970;DHT22;7057;49.984;8.404;2023-05-07T14:54:33;25.50;99.90
13970;DHT22;7057;49.984;8.404;2023-05-07T14:57:02;25.50;99.90
13970;DHT22;7057;49.984;8.404;2023-05-07T14:59:29;25.20;99.90
13970;DHT22;7057;49.984;8.404;2023-05-07T15:01:57;25.40;99.90
13970;DHT22;7057;49.984;8.404;2023-05-07T15:04:25;25.30;99.90
13970;DHT22;7057;49.984;8.404;2023-05-07T15:06:52;25.40;99.90
13970;DHT22;7057;49.984;8.404;2023-05-07T15:09:19;25.30;99.90
13970;DHT22;7057;49.984;8.404;2023-05-07T15:11:46;25.40;99.90
13970;DHT22;7057;49.984;8.404;2023-05-07T15:14:15;25.40;99.90
13970;DHT22;7057;49.984;8.404;2023-05-07T15:16:42;25.40;99.90
13970;DHT22;7057;49.984;8.404;2023-05-07T15:19:09;25.30;99.90
13970;DHT22;7057;49.984;8.404;2023-05-07T15:21:36;25.10;99.90
13970;DHT22;7057;49.984;8.404;2023-05-07T15:24:04;25.10;99.90
13970;DHT22;7057;49.984;8.404;2023-05-07T15:26:31;25.10;99.90
13970;DHT22;7057;49.984;8.404;2023-05-07T15:28:58;24.90;99.90
13970;DHT22;7057;49.984;8.404;2023-05-07T15:31:27;24.70;99.90
13970;DHT22;7057;49.984;8.404;2023-05-07T15:33:54;24.50;99.90
13970;DHT22;7057;49.984;8.404;2023-05-07T15:36:22;24.40;99.90
13970;DHT22;7057;49.984;8.404;2023-05-07T15:38:50;24.30;99.90
13970;DHT22;7057;49.984;8.404;2023-05-07T15:41:17;24.40;99.90
13970;DHT22;7057;49.984;8.404;2023-05-07T15:43:46;24.20;99.90
13970;DHT22;7057;49.984;8.404;2023-05-07T15:46:17;24.20;99.90
13970;DHT22;7057;49.984;8.404;2023-05-07T15:48:46;24.30;99.90
13970;DHT22;7057;49.984;8.404;2023-05-07T15:51:13;24.40;99.90